Time;durP1;ratioP1;P1;durP2;ratioP2;P2;SDS_P1;SDS_P2;PMS_P1;PMS_P2;Temp;Humidity;BMP_temperature;BMP_pressure;BME280_temperature;BME280_humidity;BME280_pressure;Samples;Min_cycle;Max_cycle;Signal;HPM_P1;HPM_P2
2022/12/31 00:01:09;;;;;;;39.17;24.63;;;;;;;2.76;82.46;99481.16;5111762;28;20058;-74
2022/12/31 00:03:38;;;;;;;39.35;24.63;;;;;;;2.74;82.54;99479.47;5112825;28;20047;-74
2022/12/31 00:06:13;;;;;;;36.53;23.77;;;;;;;2.71;82.94;99483.00;5113405;28;20039;-74
2022/12/31 00:08:41;;;;;;;35.55;23.23;;;;;;;2.72;82.63;99482.13;5112942;28;20215;-74
2022/12/31 00:11:09;;;;;;;34.28;23.33;;;;;;;1.96;82.49;99341.63;5113954;28;20036;-74
2022/12/31 00:13:37;;;;;;;30.27;21.17;;;;;;;2.09;82.46;99437.22;5112673;28;20036;-74
2022/12/31 00:16:08;;;;;;;33.70;20.35;;;;;;;2.70;82.56;99455.13;5113029;28;20043;-74
2022/12/31 00:18:38;;;;;;;31.80;22.00;;;;;;;2.72;82.37;99462.94;5111982;28;20112;-74
2022/12/31 00:21:07;;;;;;;32.40;21.40;;;;;;;2.72;82.51;99468.16;5110871;28;20058;-74
2022/12/31 00:23:33;;;;;;;32.58;21.73;;;;;;;2.72;82.65;99460.31;5111759;28;20044;-74
2022/12/31 00:26:05;;;;;;;39.20;23.35;;;;;;;2.71;82.61;99450.75;5110388;28;20052;-74
2022/12/31 00:28:33;;;;;;;35.00;21.50;;;;;;;1.49;82.44;99251.97;5110844;28;20040;-75
2022/12/31 00:31:06;;;;;;;34.28;22.98;;;;;;;1.08;82.47;99177.09;5110446;28;20067;-74
2022/12/31 00:33:33;;;;;;;37.45;24.88;;;;;;;2.13;82.52;99365.66;5111817;28;20040;-74
2022/12/31 00:36:17;;;;;;;36.50;22.23;;;;;;;2.73;83.02;99438.50;5110205;28;20032;-74
2022/12/31 00:38:46;;;;;;;33.30;22.97;;;;;;;2.70;82.96;99451.66;5108466;28;20035;-74
2022/12/31 00:41:14;;;;;;;31.33;21.33;;;;;;;2.63;83.14;99444.81;5108785;28;20040;-74
2022/12/31 00:43:41;;;;;;;31.50;23.17;;;;;;;2.62;83.14;99437.88;5108307;28;20085;-74
2022/12/31 00:46:08;;;;;;;35.35;24.10;;;;;;;1.34;83.08;99325.41;5107791;28;20040;-73
2022/12/31 00:48:35;;;;;;;33.47;23.02;;;;;;;2.62;83.09;99448.34;5109749;28;20054;-74
2022/12/31 00:51:03;;;;;;;31.20;21.35;;;;;;;2.64;83.07;99449.16;5108974;28;20103;-74
2022/12/31 00:53:32;;;;;;;32.45;22.63;;;;;;;1.68;82.84;99287.31;5108091;28;20058;-75
2022/12/31 00:56:04;;;;;;;33.35;21.85;;;;;;;2.66;83.10;99461.31;5107865;28;20036;-75
2022/12/31 00:58:30;;;;;;;30.95;20.88;;;;;;;1.99;83.00;99357.25;5108535;28;20296;-73
2022/12/31 01:00:57;;;;;;;28.15;18.65;;;;;;;1.94;82.71;99464.50;5110438;28;20042;-74
2022/12/31 01:03:25;;;;;;;26.45;18.27;;;;;;;2.56;83.02;99459.78;5109034;28;20043;-73
2022/12/31 01:05:52;;;;;;;27.95;19.90;;;;;;;2.66;82.91;99473.53;5109271;28;20040;-74
2022/12/31 01:08:19;;;;;;;28.30;19.05;;;;;;;2.21;82.84;99409.06;5108347;28;20134;-74
2022/12/31 01:13:51;;;;;;;26.83;20.08;;;;;;;0.72;82.66;99163.00;5047144;28;20128;-74
2022/12/31 01:16:21;;;;;;;29.27;21.73;;;;;;;2.67;82.93;99498.81;5047120;28;20037;-75
2022/12/31 01:18:48;;;;;;;32.45;22.05;;;;;;;2.36;82.92;99456.72;5076727;28;20300;-74
2022/12/31 01:21:15;;;;;;;33.70;22.80;;;;;;;2.61;82.90;99515.50;5108057;28;20052;-73
2022/12/31 01:23:44;;;;;;;32.75;22.77;;;;;;;2.34;82.95;99480.28;5107286;28;20284;-73
2022/12/31 01:26:15;;;;;;;31.92;22.50;;;;;;;2.61;83.19;99515.50;5106291;28;20048;-73
2022/12/31 01:28:42;;;;;;;31.50;22.73;;;;;;;2.59;83.20;99527.75;5107328;28;20266;-74
2022/12/31 01:31:11;;;;;;;29.05;21.30;;;;;;;2.61;83.03;99532.97;5106437;28;20046;-73
2022/12/31 01:33:38;;;;;;;30.13;21.95;;;;;;;2.63;82.98;99529.41;5107262;28;20040;-74
2022/12/31 01:36:08;;;;;;;25.40;19.90;;;;;;;2.36;83.11;99485.50;5107743;28;20054;-74
2022/12/31 01:38:36;;;;;;;27.23;19.75;;;;;;;2.60;82.89;99526.88;5106986;28;20050;-74
2022/12/31 01:41:07;;;;;;;28.00;20.50;;;;;;;2.61;82.79;99523.34;5106165;28;20062;-74
2022/12/31 01:43:59;;;;;;;25.58;19.23;;;;;;;2.63;82.94;99524.19;5107023;28;20383;-74
2022/12/31 01:46:33;;;;;;;24.13;18.23;;;;;;;2.38;82.58;99521.19;5108298;28;20040;-74
2022/12/31 01:49:03;;;;;;;24.27;17.15;;;;;;;2.62;82.53;99516.38;5107157;28;20108;-74
2022/12/31 01:51:33;;;;;;;24.45;17.75;;;;;;;2.63;82.53;99537.28;5107019;28;20081;-74
2022/12/31 01:54:03;;;;;;;24.00;17.42;;;;;;;2.61;82.65;99527.72;5107370;28;20048;-74
2022/12/31 01:56:30;;;;;;;23.27;16.38;;;;;;;2.21;82.40;99470.97;5106018;28;20040;-73
2022/12/31 01:59:07;;;;;;;22.90;18.20;;;;;;;2.61;82.70;99525.09;5106638;28;20103;-74
2022/12/31 02:01:36;;;;;;;24.08;17.08;;;;;;;2.60;82.36;99539.94;5106457;28;20039;-73
2022/12/31 02:04:08;;;;;;;21.40;16.35;;;;;;;2.58;82.68;99520.78;5105184;28;20048;-73
2022/12/31 02:06:40;;;;;;;20.48;17.10;;;;;;;2.57;82.47;99528.69;5106965;28;20199;-73
2022/12/31 02:09:07;;;;;;;22.65;16.85;;;;;;;2.13;82.46;99465.88;5105041;28;20223;-73
2022/12/31 02:11:36;;;;;;;23.20;17.38;;;;;;;2.40;82.47;99490.63;5106234;28;20053;-73
2022/12/31 02:14:09;;;;;;;21.92;16.02;;;;;;;2.61;82.57;99539.06;5106753;28;20379;-73
2022/12/31 02:16:45;;;;;;;23.20;17.55;;;;;;;2.40;82.42;99492.38;5109141;28;20048;-73
2022/12/31 02:19:38;;;;;;;21.38;17.15;;;;;;;2.66;82.46;99534.59;5125818;28;20058;-73
2022/12/31 02:22:15;;;;;;;21.42;17.42;;;;;;;2.63;82.39;99512.84;5105280;28;20055;-74
2022/12/31 02:25:09;;;;;;;21.90;16.40;;;;;;;2.38;82.72;99489.81;5105852;28;20056;-74
2022/12/31 02:27:51;;;;;;;21.20;15.90;;;;;;;2.57;82.49;99521.69;5105400;28;20062;-74
2022/12/31 02:30:21;;;;;;;22.15;17.42;;;;;;;2.58;82.45;99522.56;5106648;28;20120;-74
2022/12/31 02:32:57;;;;;;;22.23;16.35;;;;;;;2.59;82.34;99522.53;5107985;28;20036;-73
2022/12/31 02:35:29;;;;;;;23.00;17.45;;;;;;;2.60;82.48;99532.09;5109187;28;20043;-74
2022/12/31 02:38:01;;;;;;;22.70;17.80;;;;;;;2.62;82.45;99534.69;5105967;28;20063;-73
2022/12/31 02:40:28;;;;;;;21.23;16.55;;;;;;;2.65;82.45;99542.47;5107585;28;20071;-74
2022/12/31 02:42:54;;;;;;;22.65;17.48;;;;;;;2.68;82.26;99534.56;5106798;28;20288;-73
2022/12/31 02:45:29;;;;;;;23.13;17.30;;;;;;;2.68;82.36;99543.28;5088130;28;20145;-73
2022/12/31 02:48:19;;;;;;;22.27;17.40;;;;;;;2.70;82.40;99541.47;5106167;28;20256;-73
2022/12/31 02:51:06;;;;;;;22.65;17.67;;;;;;;2.69;82.22;99539.75;5106100;28;20040;-73
2022/12/31 02:53:57;;;;;;;23.15;18.00;;;;;;;2.69;82.56;99547.59;5106915;28;20040;-74
2022/12/31 02:56:30;;;;;;;23.23;17.75;;;;;;;2.66;82.27;99539.81;5106352;28;20043;-74
2022/12/31 03:02:14;;;;;;;22.52;16.83;;;;;;;2.64;82.54;99545.97;5107757;28;20040;-74
2022/12/31 03:04:47;;;;;;;24.92;17.35;;;;;;;2.67;82.28;99552.00;5106834;28;20048;-74
2022/12/31 03:07:18;;;;;;;25.05;18.63;;;;;;;2.68;82.26;99573.81;5106837;28;20046;-73
2022/12/31 03:09:45;;;;;;;23.25;18.35;;;;;;;2.67;82.36;99564.22;5110379;28;20063;-73
2022/12/31 03:14:57;;;;;;;20.15;16.40;;;;;;;1.11;82.12;99300.56;5111323;28;20039;-73
2022/12/31 03:17:27;;;;;;;24.50;18.02;;;;;;;2.70;82.20;99562.41;5110739;28;20044;-73
2022/12/31 03:22:41;;;;;;;19.67;15.82;;;;;;;2.70;82.37;99572.88;5110901;28;20044;-73
2022/12/31 03:27:55;;;;;;;20.10;16.15;;;;;;;1.54;82.18;99386.81;5109772;28;20043;-73
2022/12/31 03:30:23;;;;;;;23.92;18.23;;;;;;;2.70;82.23;99587.72;5109936;28;20036;-73
2022/12/31 03:32:55;;;;;;;21.52;16.42;;;;;;;2.08;82.18;99501.72;5110141;28;20040;-73
2022/12/31 03:35:23;;;;;;;21.42;16.35;;;;;;;2.68;82.15;99584.28;5111723;28;20048;-73
2022/12/31 03:37:51;;;;;;;23.48;17.08;;;;;;;2.67;82.24;99587.78;5093922;28;20203;-73
2022/12/31 03:40:19;;;;;;;23.60;18.63;;;;;;;1.90;82.21;99452.38;5094228;28;20032;-73
2022/12/31 03:42:46;;;;;;;22.35;17.38;;;;;;;2.65;82.54;99576.50;5111618;28;20043;-73
2022/12/31 03:45:16;;;;;;;24.60;18.48;;;;;;;2.62;82.55;99590.50;5111650;28;20055;-73
2022/12/31 03:47:42;;;;;;;23.33;18.27;;;;;;;2.61;82.75;99593.13;5111266;28;20054;-73
2022/12/31 03:50:14;;;;;;;23.50;17.30;;;;;;;2.59;82.85;99600.16;5112522;28;20050;-73
2022/12/31 03:52:40;;;;;;;24.88;16.85;;;;;;;2.60;82.88;99602.75;5114353;28;20039;-73
2022/12/31 03:55:10;;;;;;;22.52;16.40;;;;;;;2.60;82.80;99610.59;5113478;28;20119;-73
2022/12/31 03:57:38;;;;;;;24.65;17.95;;;;;;;2.63;82.77;99602.69;5113950;28;20050;-73
2022/12/31 04:00:08;;;;;;;22.65;17.77;;;;;;;2.66;82.58;99607.88;5113243;28;20042;-73
2022/12/31 04:02:35;;;;;;;23.98;17.55;;;;;;;-1.94;81.95;98938.81;5112939;28;20107;-73
2022/12/31 04:05:02;;;;;;;22.77;16.75;;;;;;;2.67;82.48;99598.25;5113222;28;20039;-74
2022/12/31 04:07:30;;;;;;;22.60;16.58;;;;;;;2.70;82.45;99604.28;5114525;28;20063;-74
2022/12/31 04:09:57;;;;;;;18.85;15.07;;;;;;;0.89;82.28;99304.44;5113988;28;20107;-74
2022/12/31 04:12:24;;;;;;;22.45;16.92;;;;;;;-0.30;82.24;99104.78;5114440;28;20074;-73
2022/12/31 04:14:51;;;;;;;21.20;17.13;;;;;;;2.00;82.55;99514.06;5114150;28;20028;-73
2022/12/31 04:17:17;;;;;;;22.75;17.77;;;;;;;2.63;82.60;99631.47;5112577;28;20040;-73
2022/12/31 04:19:44;;;;;;;25.15;18.48;;;;;;;2.65;82.45;99641.91;5111960;28;20050;-73
2022/12/31 04:22:11;;;;;;;22.70;16.70;;;;;;;-6.81;81.58;98042.28;5113053;28;20039;-73
2022/12/31 04:24:39;;;;;;;22.77;18.45;;;;;;;2.63;82.48;99641.94;5112754;28;20048;-73
2022/12/31 04:27:06;;;;;;;21.17;17.60;;;;;;;2.65;82.63;99636.69;5113204;28;20064;-74
2022/12/31 04:29:33;;;;;;;20.83;16.38;;;;;;;2.67;82.41;99645.38;5113523;28;20036;-74
2022/12/31 04:32:01;;;;;;;21.25;16.63;;;;;;;0.16;82.00;99246.50;5113001;28;20200;-73
2022/12/31 04:34:27;;;;;;;20.20;16.10;;;;;;;2.67;82.40;99646.22;5110515;28;20040;-72
2022/12/31 04:36:54;;;;;;;20.92;17.42;;;;;;;1.29;82.11;99413.41;5112086;28;20046;-73
2022/12/31 04:39:21;;;;;;;21.30;16.55;;;;;;;0.77;81.86;99331.59;5112999;28;20099;-73
2022/12/31 04:41:50;;;;;;;19.77;16.90;;;;;;;0.44;81.93;99266.94;5094211;28;20044;-72
2022/12/31 04:44:17;;;;;;;20.70;15.90;;;;;;;2.69;82.10;99656.66;5110227;28;20036;-73
2022/12/31 04:46:44;;;;;;;20.40;16.15;;;;;;;2.68;81.97;99668.88;5111082;28;20054;-73
2022/12/31 04:49:11;;;;;;;23.00;18.00;;;;;;;2.65;81.88;99642.78;5109922;28;20036;-73
2022/12/31 04:51:38;;;;;;;23.23;18.25;;;;;;;2.64;81.88;99675.06;5110274;28;20204;-72
2022/12/31 04:54:05;;;;;;;19.95;16.02;;;;;;;2.64;81.58;99664.59;5110332;28;20367;-72
2022/12/31 04:56:35;;;;;;;20.42;16.58;;;;;;;2.03;81.58;99542.78;5093442;28;20040;-74
2022/12/31 04:59:03;;;;;;;21.23;16.38;;;;;;;1.46;81.55;99459.22;5112149;28;20040;-74
2022/12/31 05:01:31;;;;;;;20.35;16.92;;;;;;;-0.55;81.22;99117.31;5109673;28;20036;-74
2022/12/31 05:03:58;;;;;;;22.40;16.70;;;;;;;2.52;81.66;99629.06;5110458;28;20068;-75
2022/12/31 05:06:25;;;;;;;18.88;15.98;;;;;;;-0.86;81.34;99068.31;5110957;28;20040;-74
2022/12/31 05:08:52;;;;;;;22.13;17.70;;;;;;;2.54;81.73;99652.56;5110628;28;20131;-74
2022/12/31 05:11:19;;;;;;;20.45;16.90;;;;;;;2.55;81.61;99657.78;5110772;28;20147;-75
2022/12/31 05:13:46;;;;;;;20.75;16.70;;;;;;;0.19;81.39;99258.63;5110508;28;20046;-74
2022/12/31 05:16:14;;;;;;;19.98;15.50;;;;;;;2.54;81.61;99668.28;5111659;28;20103;-75
2022/12/31 05:18:41;;;;;;;19.25;16.25;;;;;;;0.61;81.40;99337.94;5111333;28;20119;-74
2022/12/31 05:21:08;;;;;;;20.35;17.80;;;;;;;0.56;81.50;99334.53;5112816;28;20044;-74
2022/12/31 05:23:35;;;;;;;19.65;16.05;;;;;;;2.50;81.74;99664.84;5113222;28;20107;-74
2022/12/31 05:26:02;;;;;;;20.80;17.23;;;;;;;2.25;81.59;99634.78;5112210;28;20051;-74
2022/12/31 05:28:29;;;;;;;19.58;16.38;;;;;;;2.23;81.60;99626.09;5112531;28;20039;-74
2022/12/31 05:30:55;;;;;;;19.35;16.05;;;;;;;0.25;81.39;99282.84;5111204;28;20032;-74
2022/12/31 05:33:24;;;;;;;22.92;17.77;;;;;;;2.46;81.78;99665.78;5111381;28;20314;-74
2022/12/31 05:35:51;;;;;;;22.70;18.40;;;;;;;-0.11;81.58;99513.47;5111289;28;20351;-74
2022/12/31 05:38:17;;;;;;;21.33;17.23;;;;;;;1.01;81.63;99496.50;5111258;28;20047;-74
2022/12/31 05:40:47;;;;;;;21.52;18.45;;;;;;;-0.02;81.58;99264.13;5112018;28;20260;-74
2022/12/31 05:43:14;;;;;;;19.33;16.05;;;;;;;2.50;81.75;99677.06;5094259;28;20066;-74
2022/12/31 05:45:40;;;;;;;21.95;16.83;;;;;;;2.52;81.64;99683.13;5111074;28;20063;-74
2022/12/31 05:48:09;;;;;;;20.42;17.38;;;;;;;1.14;81.59;99454.53;5109758;28;20043;-74
2022/12/31 05:50:41;;;;;;;20.98;15.95;;;;;;;2.50;81.84;99679.69;5092571;28;20054;-74
2022/12/31 05:53:08;;;;;;;22.05;17.52;;;;;;;2.51;81.90;99681.41;5109683;28;20070;-74
2022/12/31 05:55:35;;;;;;;22.42;18.58;;;;;;;2.54;81.87;99678.75;5109462;28;20374;-74
2022/12/31 05:58:03;;;;;;;22.08;17.92;;;;;;;-3.47;81.23;98662.94;5109886;28;20054;-74
2022/12/31 06:00:29;;;;;;;24.63;18.55;;;;;;;2.59;81.91;99681.28;5110483;28;20040;-74
2022/12/31 06:02:56;;;;;;;22.42;17.50;;;;;;;2.59;82.02;99686.50;5110170;28;20046;-74
2022/12/31 06:05:23;;;;;;;21.95;17.50;;;;;;;2.61;81.97;99693.44;5093195;28;20357;-74
2022/12/31 06:07:52;;;;;;;21.25;17.27;;;;;;;2.60;81.88;99686.47;5109775;28;20058;-74
2022/12/31 06:10:18;;;;;;;22.73;17.63;;;;;;;2.61;82.07;99672.50;5109919;28;20036;-74
2022/12/31 06:12:45;;;;;;;23.60;18.60;;;;;;;-5.28;81.38;98338.66;5092826;28;20097;-74
2022/12/31 06:15:12;;;;;;;22.92;17.85;;;;;;;2.63;82.31;99675.09;5109197;28;20123;-74
2022/12/31 06:17:39;;;;;;;22.48;17.92;;;;;;;0.69;82.17;99338.69;5110257;28;20371;-74
2022/12/31 06:20:07;;;;;;;24.08;17.23;;;;;;;2.63;82.38;99673.34;5110493;28;20255;-74
2022/12/31 06:22:34;;;;;;;23.23;19.48;;;;;;;-3.77;81.84;98588.09;5109282;28;20032;-74
2022/12/31 06:25:02;;;;;;;23.48;18.92;;;;;;;2.63;82.44;99669.88;5092919;28;20197;-74
2022/12/31 06:27:29;;;;;;;22.25;17.98;;;;;;;2.62;82.62;99671.63;5109640;28;20227;-74
2022/12/31 06:29:56;;;;;;;20.45;16.90;;;;;;;-0.38;82.02;99172.63;5109559;28;20046;-74
2022/12/31 06:32:23;;;;;;;20.20;16.33;;;;;;;2.22;82.66;99611.28;5109492;28;20040;-74
2022/12/31 06:34:50;;;;;;;19.70;16.58;;;;;;;2.64;82.60;99675.06;5107585;28;20058;-74
2022/12/31 06:37:17;;;;;;;21.55;17.35;;;;;;;2.64;82.87;99672.44;5106568;28;20119;-74
2022/12/31 06:39:44;;;;;;;22.65;17.40;;;;;;;2.66;82.64;99682.88;5107669;28;20036;-74
2022/12/31 06:42:13;;;;;;;25.48;17.17;;;;;;;2.69;82.67;99682.84;5108727;28;20326;-74
2022/12/31 06:44:39;;;;;;;19.42;17.05;;;;;;;2.70;82.74;99680.19;5112092;28;20050;-75
2022/12/31 06:47:06;;;;;;;19.65;16.83;;;;;;;2.71;82.61;99694.13;5111633;28;20046;-74
2022/12/31 06:49:33;;;;;;;20.02;16.50;;;;;;;2.71;82.57;99700.25;5111838;28;20106;-73
2022/12/31 06:51:59;;;;;;;19.85;14.52;;;;;;;1.64;82.57;99514.69;5111523;28;20052;-74
2022/12/31 06:54:26;;;;;;;19.55;15.50;;;;;;;2.77;82.54;99705.34;5110865;28;20036;-74
2022/12/31 06:56:54;;;;;;;22.05;15.63;;;;;;;2.78;82.53;99707.09;5110713;28;20052;-74
2022/12/31 06:59:27;;;;;;;18.55;15.68;;;;;;;2.76;82.76;99711.50;5110955;28;20235;-74
2022/12/31 07:02:14;;;;;;;21.08;15.75;;;;;;;1.73;82.83;99543.28;5111861;28;20047;-74
2022/12/31 07:05:13;;;;;;;19.00;14.52;;;;;;;2.75;83.19;99707.16;5112458;28;20048;-74
2022/12/31 07:07:50;;;;;;;19.73;16.33;;;;;;;1.53;82.94;99501.78;5111628;28;20212;-74
2022/12/31 07:10:28;;;;;;;18.00;15.77;;;;;;;1.68;82.70;99532.06;5110708;28;20040;-74
2022/12/31 07:13:20;;;;;;;19.10;15.77;;;;;;;2.79;83.01;99711.44;5095178;28;20036;-74
2022/12/31 07:16:01;;;;;;;17.48;14.82;;;;;;;2.78;83.01;99717.56;5112786;28;20035;-74
2022/12/31 07:18:40;;;;;;;18.08;15.93;;;;;;;2.35;82.83;99654.66;5112534;28;20036;-74
2022/12/31 07:21:11;;;;;;;19.05;15.52;;;;;;;2.20;82.86;99645.31;5112332;28;20147;-74
2022/12/31 07:23:39;;;;;;;19.90;17.27;;;;;;;2.84;82.71;99737.53;5113081;28;20048;-74
2022/12/31 07:26:15;;;;;;;17.65;14.68;;;;;;;0.88;82.60;99400.13;5111602;28;20047;-74
2022/12/31 07:28:54;;;;;;;17.55;15.15;;;;;;;1.63;82.69;99541.72;5112401;28;20054;-74
2022/12/31 07:31:34;;;;;;;19.27;16.25;;;;;;;1.48;82.57;99512.31;5111495;28;20039;-74
2022/12/31 07:34:08;;;;;;;16.08;14.27;;;;;;;2.90;82.53;99755.75;5095161;28;20059;-74
2022/12/31 07:36:55;;;;;;;17.23;15.20;;;;;;;0.71;82.53;99364.75;5112126;28;20035;-75
2022/12/31 07:39:32;;;;;;;17.58;14.38;;;;;;;2.33;82.47;99645.09;5111956;28;20142;-74
2022/12/31 07:42:07;;;;;;;17.85;15.88;;;;;;;-0.68;82.06;99556.50;5095156;28;20069;-74
2022/12/31 07:44:45;;;;;;;19.13;16.73;;;;;;;2.97;82.62;99746.03;5112942;28;20044;-74
2022/12/31 07:47:21;;;;;;;18.95;15.57;;;;;;;1.08;82.62;99425.03;5112979;28;20066;-74
2022/12/31 07:49:49;;;;;;;19.45;15.05;;;;;;;-1.54;82.04;99150.56;5112702;28;20043;-74
2022/12/31 07:52:18;;;;;;;19.48;16.15;;;;;;;-5.28;81.57;98357.59;5094987;28;20036;-74
2022/12/31 07:54:46;;;;;;;20.77;15.93;;;;;;;2.44;82.47;99664.09;5112047;28;20040;-74
2022/12/31 07:57:14;;;;;;;20.90;14.90;;;;;;;3.08;82.40;99741.44;5111635;28;20040;-75
2022/12/31 07:59:52;;;;;;;21.83;17.45;;;;;;;3.10;82.50;99740.53;5094694;28;20036;-75
2022/12/31 08:02:35;;;;;;;17.83;14.82;;;;;;;2.02;82.45;99556.72;5112407;28;20107;-75
2022/12/31 08:05:09;;;;;;;16.38;13.93;;;;;;;3.11;82.42;99757.09;5111908;28;20093;-75
2022/12/31 08:07:46;;;;;;;18.55;14.82;;;;;;;3.14;82.42;99751.81;5111622;28;20047;-75
2022/12/31 08:10:20;;;;;;;16.73;14.52;;;;;;;3.14;82.19;99755.28;5112038;28;20040;-74
2022/12/31 08:12:49;;;;;;;17.63;15.65;;;;;;;3.14;82.23;99757.91;5111681;28;20040;-74
2022/12/31 08:15:18;;;;;;;17.65;13.95;;;;;;;3.16;82.15;99750.91;5111967;28;20085;-74
2022/12/31 08:17:47;;;;;;;18.50;15.60;;;;;;;-0.83;81.81;99083.88;5110845;28;20039;-75
2022/12/31 08:20:16;;;;;;;22.70;15.18;;;;;;;2.11;81.92;99564.41;5112058;28;20131;-75
2022/12/31 08:23:04;;;;;;;15.50;13.70;;;;;;;0.98;81.88;99358.22;5112150;28;20054;-75
2022/12/31 08:25:38;;;;;;;19.23;14.85;;;;;;;3.35;82.15;99750.53;5111554;28;20056;-75
2022/12/31 08:28:19;;;;;;;18.00;14.85;;;;;;;3.45;82.45;99747.69;5111876;28;20036;-75
2022/12/31 08:30:59;;;;;;;16.60;14.45;;;;;;;2.91;82.22;99646.66;5095563;28;20040;-75
2022/12/31 08:33:34;;;;;;;17.38;14.23;;;;;;;-1.51;81.52;98978.13;5112241;28;20066;-75
2022/12/31 08:36:11;;;;;;;17.20;14.48;;;;;;;2.60;81.81;99562.63;5094186;28;20062;-75
2022/12/31 08:38:47;;;;;;;17.63;14.10;;;;;;;3.80;81.39;99777.56;5111531;28;20050;-75
2022/12/31 08:41:22;;;;;;;18.90;14.90;;;;;;;3.85;81.29;99750.34;5111495;28;20319;-74
2022/12/31 08:44:02;;;;;;;16.15;13.98;;;;;;;3.90;81.18;99766.00;5111278;28;20050;-74
2022/12/31 08:46:34;;;;;;;18.45;15.00;;;;;;;0.61;80.62;99204.91;5111129;28;20042;-74
2022/12/31 08:49:06;;;;;;;17.98;14.70;;;;;;;4.01;80.99;99769.25;5111492;28;20048;-75
2022/12/31 08:51:33;;;;;;;17.17;15.40;;;;;;;2.69;80.77;99545.00;5110550;28;20119;-75
2022/12/31 08:54:00;;;;;;;17.88;15.50;;;;;;;4.20;80.88;99777.59;5110392;28;20039;-75
2022/12/31 08:56:31;;;;;;;18.00;16.13;;;;;;;4.20;80.65;99767.09;5093931;28;20052;-75
2022/12/31 08:59:18;;;;;;;17.42;15.27;;;;;;;3.40;80.44;99657.00;5111190;28;20050;-75
2022/12/31 09:02:04;;;;;;;18.73;14.77;;;;;;;4.26;80.50;99787.09;5111136;28;20051;-75
2022/12/31 09:04:46;;;;;;;18.35;14.55;;;;;;;4.28;80.62;99774.81;5110751;28;20047;-75
2022/12/31 09:07:15;;;;;;;17.48;15.35;;;;;;;3.26;80.36;99594.41;5110962;28;20058;-75
2022/12/31 09:09:55;;;;;;;20.13;16.50;;;;;;;3.81;80.08;100206.69;5093466;28;20046;-74
2022/12/31 09:12:30;;;;;;;16.77;14.98;;;;;;;4.38;80.18;99769.31;5110890;28;20243;-74
2022/12/31 09:15:03;;;;;;;19.67;15.50;;;;;;;3.01;80.04;99582.72;5110344;28;20079;-74
2022/12/31 09:17:43;;;;;;;18.55;16.52;;;;;;;4.44;80.17;99747.31;5111372;28;20062;-75
2022/12/31 09:20:20;;;;;;;18.10;16.13;;;;;;;4.47;80.06;99761.22;5110376;28;20047;-75
2022/12/31 09:22:48;;;;;;;17.88;15.05;;;;;;;4.52;80.05;99781.25;5111374;28;20253;-74
2022/12/31 09:25:17;;;;;;;17.38;14.98;;;;;;;2.37;79.79;99412.22;5110576;28;20056;-75
2022/12/31 09:27:53;;;;;;;19.15;16.65;;;;;;;1.39;79.62;99251.31;5110226;28;20046;-75
2022/12/31 09:30:20;;;;;;;19.25;15.75;;;;;;;4.60;79.97;99782.78;5110020;28;20046;-75
2022/12/31 09:32:55;;;;;;;17.02;15.02;;;;;;;4.63;79.83;99781.84;5110772;28;20191;-75
2022/12/31 09:35:35;;;;;;;17.30;15.50;;;;;;;3.40;79.68;99574.00;5110724;28;20397;-75
2022/12/31 09:38:07;;;;;;;19.17;16.63;;;;;;;4.65;79.96;99769.53;5110686;28;20055;-75
2022/12/31 09:41:11;;;;;;;20.02;16.67;;;;;;;4.72;80.10;99776.38;5110455;28;20048;-75
2022/12/31 09:44:24;;;;;;;19.83;16.23;;;;;;;4.74;80.08;99777.19;5111693;28;20063;-75
2022/12/31 09:47:30;;;;;;;17.48;15.38;;;;;;;4.74;79.74;99783.31;5110273;28;20119;-75
2022/12/31 09:50:31;;;;;;;17.48;14.93;;;;;;;4.77;79.82;99772.72;5110161;28;20044;-75
2022/12/31 09:53:12;;;;;;;18.00;15.90;;;;;;;4.49;79.72;99720.03;5110075;28;20050;-75
2022/12/31 09:55:45;;;;;;;16.73;14.63;;;;;;;3.85;79.69;99603.53;5109680;28;20050;-75
2022/12/31 09:58:26;;;;;;;19.60;16.73;;;;;;;2.11;79.42;99289.03;5109735;28;20124;-75
2022/12/31 10:01:00;;;;;;;21.90;17.90;;;;;;;4.95;79.55;99791.59;5110328;28;20044;-75
2022/12/31 10:03:42;;;;;;;20.05;16.05;;;;;;;4.99;79.60;99770.44;5092799;28;20187;-75
2022/12/31 10:06:20;;;;;;;21.40;18.20;;;;;;;4.10;79.21;99614.28;5109048;28;20070;-75
2022/12/31 10:09:20;;;;;;;23.50;20.98;;;;;;;3.41;79.27;99549.53;5109956;28;20288;-75
2022/12/31 10:12:04;;;;;;;19.85;16.63;;;;;;;5.02;79.28;99811.53;5119689;28;20048;-74
2022/12/31 10:14:57;;;;;;;24.17;19.83;;;;;;;5.03;79.48;99765.97;5109513;28;20063;-75
2022/12/31 10:17:36;;;;;;;20.33;17.77;;;;;;;3.52;79.33;99512.59;5109968;28;20078;-75
2022/12/31 10:20:24;;;;;;;19.55;16.85;;;;;;;5.06;79.38;99765.91;5109351;28;20035;-75
2022/12/31 10:23:24;;;;;;;19.52;16.08;;;;;;;5.07;79.17;99755.34;5109431;28;20036;-74
2022/12/31 10:26:07;;;;;;;18.92;16.88;;;;;;;2.20;78.99;99262.66;5104847;28;20115;-75
2022/12/31 10:28:48;;;;;;;19.02;16.67;;;;;;;4.00;79.27;99565.56;5109175;28;20296;-75
2022/12/31 10:31:20;;;;;;;17.77;15.40;;;;;;;5.09;79.32;99747.44;5109504;28;20344;-75
2022/12/31 10:34:03;;;;;;;17.73;15.93;;;;;;;5.10;79.31;99746.53;5108427;28;20048;-75
2022/12/31 10:36:39;;;;;;;20.33;17.25;;;;;;;4.51;79.26;99730.50;5108525;28;20107;-75
2022/12/31 10:39:19;;;;;;;19.05;16.92;;;;;;;4.50;79.21;99629.03;5108277;28;20046;-75
2022/12/31 10:45:29;;;;;;;19.63;17.13;;;;;;;5.21;79.37;99739.22;5128031;27;20811;-73
2022/12/31 10:48:47;;;;;;;21.80;17.92;;;;;;;4.60;79.53;99642.78;5109559;28;20054;-73
2022/12/31 10:51:59;;;;;;;18.65;16.02;;;;;;;5.26;79.42;99739.09;5109067;28;20036;-73
2022/12/31 10:54:52;;;;;;;20.02;16.88;;;;;;;5.29;79.48;99724.09;5126481;28;20050;-74
2022/12/31 10:57:51;;;;;;;21.48;18.25;;;;;;;5.37;79.27;99727.38;5126396;28;20032;-74
2022/12/31 11:00:21;;;;;;;23.60;18.95;;;;;;;5.40;79.14;99715.91;5127045;28;20047;-74
2022/12/31 11:03:39;;;;;;;21.55;17.85;;;;;;;5.43;78.99;99711.44;5125902;28;20033;-74
2022/12/31 11:06:41;;;;;;;28.88;24.75;;;;;;;5.32;78.99;99688.97;5068225;28;20106;-74
2022/12/31 11:09:49;;;;;;;33.47;26.70;;;;;;;-1.32;78.53;98631.25;5085122;28;20063;-74
2022/12/31 11:12:33;;;;;;;27.73;23.55;;;;;;;5.53;79.16;99712.03;5124660;28;20055;-74
2022/12/31 11:15:15;;;;;;;21.52;18.50;;;;;;;4.47;78.52;99548.63;5125841;28;20294;-73
2022/12/31 11:17:57;;;;;;;21.15;17.20;;;;;;;5.03;78.58;99611.00;5127468;28;20181;-73
2022/12/31 11:20:44;;;;;;;21.65;17.98;;;;;;;5.62;78.66;99711.75;5127538;28;20043;-73
2022/12/31 11:23:27;;;;;;;21.80;18.10;;;;;;;5.48;78.70;99665.75;5127177;28;20107;-73
2022/12/31 11:26:07;;;;;;;23.13;17.85;;;;;;;5.73;78.67;99704.41;5127650;28;20346;-73
2022/12/31 11:29:05;;;;;;;18.98;16.92;;;;;;;5.78;78.67;99696.38;5126520;28;20059;-74
2022/12/31 11:31:47;;;;;;;21.17;17.65;;;;;;;5.85;78.62;99682.13;5122932;28;20048;-73
2022/12/31 11:34:57;;;;;;;21.10;18.17;;;;;;;5.65;78.55;99638.03;5126969;28;20043;-73
2022/12/31 11:37:40;;;;;;;19.52;16.98;;;;;;;4.77;78.23;99476.00;5115875;28;20222;-74
2022/12/31 11:40:41;;;;;;;20.25;16.83;;;;;;;6.02;78.29;99674.59;5128089;28;20186;-73
2022/12/31 11:43:24;;;;;;;20.52;17.70;;;;;;;5.82;78.54;99640.16;5105419;28;20115;-74
2022/12/31 11:46:30;;;;;;;20.20;18.02;;;;;;;6.13;78.32;99687.41;5127325;28;20111;-75
2022/12/31 11:49:07;;;;;;;;;;;;;;;6.09;78.50;99676.09;5109065;28;20244;-75
2022/12/31 11:52:09;;;;;;;22.00;19.00;;;;;;;6.08;78.40;99674.38;5126378;28;19991;-74
2022/12/31 11:55:01;;;;;;;21.33;18.70;;;;;;;6.20;78.19;99675.75;5111288;28;20058;-76
2022/12/31 11:57:36;;;;;;;21.83;17.95;;;;;;;6.22;77.94;99676.56;5112782;28;20079;-75
2022/12/31 12:00:13;;;;;;;20.63;17.92;;;;;;;6.22;77.85;99655.53;5113834;28;20119;-75
2022/12/31 12:02:45;;;;;;;20.00;17.17;;;;;;;6.24;77.83;99669.50;5112143;28;20111;-75
2022/12/31 12:05:15;;;;;;;22.95;18.70;;;;;;;6.27;77.74;99666.75;5111493;28;20127;-75
2022/12/31 12:07:44;;;;;;;20.15;17.15;;;;;;;6.30;77.82;99679.81;5111126;28;20040;-75
2022/12/31 12:10:22;;;;;;;21.25;18.58;;;;;;;6.32;77.75;99682.41;5109001;28;20039;-75
2022/12/31 12:12:50;;;;;;;23.10;20.17;;;;;;;6.35;77.85;99675.25;5110775;28;20047;-75
2022/12/31 12:15:20;;;;;;;21.30;18.45;;;;;;;6.36;77.79;99681.38;5112616;28;20169;-75